Time;durP1;ratioP1;P1;durP2;ratioP2;P2;SDS_P1;SDS_P2;PMS_P1;PMS_P2;Temp;Humidity;BMP_temperature;BMP_pressure;BME280_temperature;BME280_humidity;BME280_pressure;Samples;Min_cycle;Max_cycle;Signal;HPM_P1;HPM_P2
2023/06/09 00:01:25;;;;;;;6.90;5.30;;;;;;;19.32;64.03;100884.58;108276;1267;70188;-73
2023/06/09 00:03:52;;;;;;;6.00;5.20;;;;;;;19.30;64.14;100884.75;108216;1266;72419;-73
2023/06/09 00:06:22;;;;;;;6.60;5.70;;;;;;;19.31;64.20;100885.73;108103;1267;62081;-74
2023/06/09 00:08:50;;;;;;;6.20;5.10;;;;;;;19.29;64.29;100881.75;108145;1266;59152;-73
2023/06/09 00:11:18;;;;;;;6.90;5.70;;;;;;;19.29;64.36;100885.73;108260;1266;73025;-73
2023/06/09 00:13:45;;;;;;;6.70;5.80;;;;;;;19.27;64.55;100888.80;108100;1267;69534;-73
2023/06/09 00:16:12;;;;;;;6.50;5.30;;;;;;;19.26;64.68;100884.57;108127;1267;71489;-73
2023/06/09 00:18:40;;;;;;;6.60;5.90;;;;;;;19.26;64.82;100882.26;108117;1265;61215;-73
2023/06/09 00:21:10;;;;;;;8.70;5.60;;;;;;;19.26;64.93;100885.65;108197;1266;60204;-74
2023/06/09 00:23:37;;;;;;;7.00;5.70;;;;;;;19.26;65.10;100884.32;108155;1266;75053;-73
2023/06/09 00:26:04;;;;;;;7.40;6.00;;;;;;;19.26;65.53;100883.33;108180;1267;69990;-73
2023/06/09 00:28:33;;;;;;;8.20;6.20;;;;;;;19.23;65.62;100877.24;108080;1266;71458;-73
2023/06/09 00:31:00;;;;;;;7.20;6.30;;;;;;;19.23;65.62;100877.87;108169;1266;62961;-73
2023/06/09 00:33:27;;;;;;;8.40;6.30;;;;;;;19.22;65.70;100877.53;108141;1267;60176;-73
2023/06/09 00:35:54;;;;;;;9.10;5.80;;;;;;;19.22;65.72;100878.05;108171;1266;73439;-73
2023/06/09 00:38:21;;;;;;;6.80;5.90;;;;;;;19.21;65.87;100877.03;108144;1267;70485;-73
2023/06/09 00:40:50;;;;;;;6.50;5.80;;;;;;;19.20;66.11;100873.77;108185;1266;71604;-73
2023/06/09 00:43:16;;;;;;;7.90;5.80;;;;;;;19.19;65.99;100868.92;108169;1267;61764;-73
2023/06/09 00:45:43;;;;;;;7.50;6.00;;;;;;;19.19;66.05;100868.98;108013;1267;59568;-73
2023/06/09 00:48:13;;;;;;;6.90;6.00;;;;;;;19.20;66.08;100869.52;108183;1267;75225;-73
2023/06/09 00:50:40;;;;;;;7.50;6.30;;;;;;;19.20;66.14;100870.20;108111;1267;70052;-73
2023/06/09 00:53:09;;;;;;;7.50;5.50;;;;;;;19.20;66.13;100867.89;108169;1267;70774;-73
2023/06/09 00:58:17;;;;;;;9.60;5.90;;;;;;;19.22;66.29;100865.96;106225;1282;599576;-56
2023/06/09 01:00:44;;;;;;;6.40;5.80;;;;;;;19.18;66.34;100864.08;108379;1264;57189;-52
2023/06/09 01:03:11;;;;;;;8.30;6.30;;;;;;;19.17;66.43;100865.08;108422;1264;59212;-52
2023/06/09 01:05:39;;;;;;;6.90;6.10;;;;;;;19.16;66.41;100864.46;108393;1264;71002;-55
2023/06/09 01:08:18;;;;;;;6.60;5.90;;;;;;;19.14;66.51;100865.92;108398;1265;71288;-54
2023/06/09 01:11:01;;;;;;;6.90;5.60;;;;;;;19.13;66.50;100867.84;108170;1264;297693;-53
2023/06/09 01:13:45;;;;;;;7.90;6.60;;;;;;;19.13;66.56;100873.36;108583;1261;61748;-51
2023/06/09 01:16:22;;;;;;;9.00;6.00;;;;;;;19.12;66.54;100867.46;108573;1262;59196;-51
2023/06/09 01:18:50;;;;;;;7.70;6.30;;;;;;;19.11;66.65;100865.35;108552;1261;72688;-51
2023/06/09 01:21:35;;;;;;;9.90;6.30;;;;;;;19.10;66.87;100866.92;108601;1262;71208;-50
2023/06/09 01:24:30;;;;;;;7.30;6.20;;;;;;;19.10;66.86;100864.29;108710;1259;71741;-52
2023/06/09 01:26:59;;;;;;;8.30;6.40;;;;;;;19.09;66.97;100865.19;108671;1259;61690;-50
2023/06/09 01:29:28;;;;;;;6.80;6.10;;;;;;;19.06;67.11;100861.94;108705;1259;59484;-53
2023/06/09 01:31:55;;;;;;;9.10;6.30;;;;;;;19.04;67.19;100862.48;108708;1259;72929;-57
2023/06/09 01:34:22;;;;;;;7.50;6.60;;;;;;;19.01;67.31;100859.65;108721;1259;70316;-50
2023/06/09 01:36:51;;;;;;;9.20;6.70;;;;;;;18.99;67.63;100861.84;108653;1259;72770;-55
2023/06/09 01:39:18;;;;;;;7.40;6.50;;;;;;;18.97;67.69;100861.23;108661;1258;60806;-55
2023/06/09 01:41:44;;;;;;;9.10;6.70;;;;;;;18.96;67.80;100864.61;108693;1259;59348;-55
2023/06/09 01:44:11;;;;;;;9.60;6.60;;;;;;;18.95;67.90;100862.33;108688;1259;73166;-56
2023/06/09 01:46:37;;;;;;;7.60;6.80;;;;;;;18.94;67.94;100861.34;108695;1259;57375;-52
2023/06/09 01:49:29;;;;;;;8.50;6.60;;;;;;;18.94;67.92;100859.45;108710;1259;71721;-50
2023/06/09 01:52:07;;;;;;;8.30;6.60;;;;;;;18.93;68.19;100858.06;108646;1259;61207;-54
2023/06/09 01:54:37;;;;;;;11.90;6.70;;;;;;;18.92;68.22;100859.66;108703;1259;60356;-51
2023/06/09 01:57:07;;;;;;;10.30;6.70;;;;;;;18.90;68.45;100861.28;108687;1259;73105;-52
2023/06/09 01:59:55;;;;;;;7.70;6.60;;;;;;;18.89;68.34;100858.40;108652;1259;70173;-54
2023/06/09 02:02:25;;;;;;;7.70;6.80;;;;;;;18.89;68.45;100857.95;108747;1259;71507;-50
2023/06/09 02:04:53;;;;;;;7.80;6.80;;;;;;;18.87;68.45;100860.63;108762;1258;60460;-55
2023/06/09 02:07:21;;;;;;;7.80;6.60;;;;;;;18.85;68.65;100859.48;108766;1262;59610;-52
2023/06/09 02:09:49;;;;;;;7.70;6.90;;;;;;;18.84;68.68;100853.95;108785;1259;72196;-54
2023/06/09 02:12:16;;;;;;;8.00;7.20;;;;;;;18.82;68.86;100854.77;108813;1259;71344;-52
2023/06/09 02:14:42;;;;;;;9.20;7.00;;;;;;;18.81;68.90;100851.77;108779;1259;71426;-56
2023/06/09 02:17:09;;;;;;;8.20;7.20;;;;;;;18.79;69.08;100853.81;108743;1259;62631;-54
2023/06/09 02:19:39;;;;;;;8.00;6.90;;;;;;;18.77;69.17;100855.50;108789;1259;59091;-54
2023/06/09 02:22:06;;;;;;;8.60;7.10;;;;;;;18.75;69.22;100854.60;108794;1259;74003;-54
2023/06/09 02:24:33;;;;;;;8.30;7.40;;;;;;;18.74;69.36;100854.72;108812;1259;71458;-54
2023/06/09 02:27:00;;;;;;;10.00;7.40;;;;;;;18.73;69.43;100857.16;108739;1259;72640;-53
2023/06/09 02:29:27;;;;;;;8.60;7.40;;;;;;;18.71;69.55;100861.02;108740;1259;62104;-50
2023/06/09 02:31:55;;;;;;;10.60;7.50;;;;;;;18.69;69.68;100861.62;108771;1259;60273;-50
2023/06/09 02:34:25;;;;;;;7.90;7.00;;;;;;;18.68;69.72;100862.77;108779;1259;72042;-52
2023/06/09 02:36:54;;;;;;;8.50;7.60;;;;;;;18.65;69.86;100862.55;108787;1259;72389;-53
2023/06/09 02:39:21;;;;;;;7.80;7.10;;;;;;;18.64;70.12;100864.60;108778;1259;72607;-53
2023/06/09 02:41:48;;;;;;;9.90;7.50;;;;;;;18.62;70.30;100870.27;109280;1252;61014;-53
2023/06/09 02:44:15;;;;;;;11.10;8.10;;;;;;;18.60;70.56;100866.20;109328;1250;59070;-52
2023/06/09 02:46:43;;;;;;;9.10;7.90;;;;;;;18.57;70.71;100868.84;109296;1250;71620;-55
2023/06/09 02:49:10;;;;;;;9.70;8.00;;;;;;;18.54;70.90;100871.39;109335;1250;70566;-50
2023/06/09 02:51:37;;;;;;;8.70;7.70;;;;;;;18.52;71.01;100865.64;109371;1250;73065;-52
2023/06/09 02:54:04;;;;;;;9.50;8.20;;;;;;;18.50;71.18;100867.35;109363;1250;60432;-57
2023/06/09 02:56:30;;;;;;;9.80;8.20;;;;;;;18.48;71.42;100868.70;109317;1251;60333;-56
2023/06/09 02:58:57;;;;;;;9.30;8.10;;;;;;;18.46;71.52;100869.54;109340;1250;72988;-55
2023/06/09 03:01:27;;;;;;;9.90;8.90;;;;;;;18.44;71.69;100866.15;109300;1250;70328;-52
2023/06/09 03:03:53;;;;;;;9.90;8.50;;;;;;;18.43;71.81;100868.82;109344;1250;73222;-54
2023/06/09 03:06:20;;;;;;;9.70;8.50;;;;;;;18.42;71.96;100871.64;109311;1250;60687;-51
2023/06/09 03:08:46;;;;;;;10.40;8.90;;;;;;;18.41;72.08;100871.48;109320;1251;57904;-54
2023/06/09 03:11:12;;;;;;;9.70;8.70;;;;;;;18.41;72.26;100872.11;109332;1250;57702;-50
2023/06/09 03:13:39;;;;;;;9.90;8.40;;;;;;;18.39;72.37;100873.58;109317;1250;59330;-51
2023/06/09 03:16:06;;;;;;;9.30;8.30;;;;;;;18.39;72.45;100872.05;109305;1250;57486;-53
2023/06/09 03:18:33;;;;;;;9.70;8.00;;;;;;;18.38;72.65;100876.39;109317;1250;62609;-58
2023/06/09 03:21:04;;;;;;;9.10;8.20;;;;;;;18.37;72.76;100872.23;109369;1251;57535;-57
2023/06/09 03:23:33;;;;;;;9.60;8.50;;;;;;;18.38;72.85;100873.09;109341;1250;71588;-55
2023/06/09 03:26:00;;;;;;;9.70;8.10;;;;;;;18.36;72.79;100874.89;109333;1250;69928;-54
2023/06/09 03:28:26;;;;;;;10.00;8.50;;;;;;;18.36;72.86;100882.09;109331;1250;57542;-53
2023/06/09 03:30:54;;;;;;;10.00;7.80;;;;;;;18.34;72.83;100882.47;109351;1250;57400;-53
2023/06/09 03:33:22;;;;;;;10.70;8.00;;;;;;;18.32;72.73;100886.27;109285;1250;59429;-53
2023/06/09 03:35:49;;;;;;;9.50;8.00;;;;;;;18.32;72.63;100892.64;109325;1250;72485;-59
2023/06/09 03:38:16;;;;;;;9.90;7.70;;;;;;;18.32;72.55;100895.66;109353;1252;70018;-54
2023/06/09 03:40:42;;;;;;;9.10;7.50;;;;;;;18.32;72.38;100898.77;109318;1250;57690;-54
2023/06/09 03:43:11;;;;;;;9.50;7.90;;;;;;;18.32;72.07;100901.03;109336;1253;57874;-53
2023/06/09 03:45:37;;;;;;;12.90;7.80;;;;;;;18.33;71.92;100904.49;109358;1250;59194;-52
2023/06/09 03:48:05;;;;;;;8.40;7.30;;;;;;;18.34;71.78;100904.27;109320;1251;73131;-55
2023/06/09 03:50:32;;;;;;;9.00;7.40;;;;;;;18.35;71.36;100903.16;109332;1253;70163;-53
2023/06/09 03:52:58;;;;;;;9.50;7.10;;;;;;;18.36;71.32;100899.63;109332;1251;73201;-55
2023/06/09 03:55:25;;;;;;;9.10;7.80;;;;;;;18.38;71.21;100904.91;109340;1250;57381;-55
2023/06/09 03:57:51;;;;;;;9.50;7.10;;;;;;;18.40;70.95;100906.30;109292;1250;57214;-50
2023/06/09 04:00:18;;;;;;;8.10;7.30;;;;;;;18.42;70.88;100906.11;109312;1251;58048;-52
2023/06/09 04:02:44;;;;;;;10.00;7.90;;;;;;;18.45;70.66;100908.90;109297;1253;57402;-50
2023/06/09 04:05:11;;;;;;;10.20;7.30;;;;;;;18.47;70.38;100910.29;109352;1250;72499;-56
2023/06/09 04:07:37;;;;;;;9.20;7.50;;;;;;;18.49;70.27;100909.67;109320;1253;57463;-55
2023/06/09 04:10:04;;;;;;;8.50;7.30;;;;;;;18.49;69.92;100905.91;109380;1250;57468;-53
2023/06/09 04:12:31;;;;;;;7.90;6.90;;;;;;;18.52;69.71;100903.73;109342;1250;73078;-51
2023/06/09 04:14:59;;;;;;;8.00;6.60;;;;;;;18.54;69.53;100906.80;109302;1253;57525;-54
2023/06/09 04:17:26;;;;;;;10.80;7.40;;;;;;;18.57;69.21;100902.11;109301;1251;71424;-52
2023/06/09 04:19:54;;;;;;;9.10;7.00;;;;;;;18.59;68.91;100901.83;109311;1253;60941;-57
2023/06/09 04:22:21;;;;;;;8.70;7.00;;;;;;;18.60;68.74;100903.27;109314;1250;60064;-56
2023/06/09 04:24:47;;;;;;;10.30;6.60;;;;;;;18.60;68.66;100898.98;109342;1250;58223;-52
2023/06/09 04:27:15;;;;;;;9.20;6.60;;;;;;;18.61;68.31;100898.64;109318;1251;57764;-56
2023/06/09 04:29:45;;;;;;;8.70;6.70;;;;;;;18.62;68.19;100901.07;109330;1251;72517;-53
2023/06/09 04:32:11;;;;;;;7.50;6.60;;;;;;;18.64;68.13;100899.89;109347;1250;63032;-50
2023/06/09 04:34:38;;;;;;;11.00;7.20;;;;;;;18.66;67.80;100897.60;109296;1250;57844;-54
2023/06/09 04:37:08;;;;;;;9.20;6.70;;;;;;;18.67;67.57;100896.88;109342;1250;72041;-53
2023/06/09 04:39:35;;;;;;;13.00;7.70;;;;;;;18.68;67.59;100896.40;109350;1250;71686;-50
2023/06/09 04:42:03;;;;;;;9.60;6.80;;;;;;;18.72;67.52;100899.42;109334;1250;71449;-50
2023/06/09 04:44:32;;;;;;;12.70;7.20;;;;;;;18.72;67.37;100897.52;109329;1252;62550;-52
2023/06/09 04:46:59;;;;;;;10.30;6.50;;;;;;;18.74;67.42;100900.69;109300;1250;60371;-57
2023/06/09 04:49:28;;;;;;;10.80;6.60;;;;;;;18.74;67.37;100897.75;109254;1253;73115;-53
2023/06/09 04:51:54;;;;;;;10.30;7.40;;;;;;;18.76;67.43;100899.89;109276;1253;70135;-53
2023/06/09 04:54:25;;;;;;;9.50;7.20;;;;;;;18.79;67.30;100896.73;109276;1250;71233;-54
2023/06/09 04:56:52;;;;;;;8.70;7.00;;;;;;;18.81;67.15;100897.75;109325;1252;60909;-51
2023/06/09 04:59:20;;;;;;;8.20;7.10;;;;;;;18.84;66.99;100898.49;109343;1250;58872;-53
2023/06/09 05:01:47;;;;;;;11.50;7.10;;;;;;;18.86;66.87;100897.81;109357;1250;72461;-54
2023/06/09 05:04:13;;;;;;;9.90;6.90;;;;;;;18.89;66.59;100899.97;109343;1250;71161;-53
2023/06/09 05:06:40;;;;;;;9.50;7.10;;;;;;;18.91;66.53;100901.23;109313;1250;71482;-51
2023/06/09 05:09:07;;;;;;;9.30;6.70;;;;;;;18.96;66.44;100900.73;109335;1251;61870;-52
2023/06/09 05:11:35;;;;;;;9.10;6.70;;;;;;;19.00;66.47;100896.98;109368;1250;60038;-50
2023/06/09 05:14:02;;;;;;;9.10;7.20;;;;;;;19.04;66.29;100901.95;109363;1250;73882;-52
2023/06/09 05:16:29;;;;;;;10.20;7.40;;;;;;;19.06;66.33;100905.17;109361;1251;69928;-50
2023/06/09 05:18:56;;;;;;;11.30;6.80;;;;;;;19.09;66.44;100903.20;109332;1250;71243;-54
2023/06/09 05:21:24;;;;;;;9.70;7.20;;;;;;;19.10;66.41;100907.76;109329;1252;60465;-51
2023/06/09 05:23:51;;;;;;;9.80;7.10;;;;;;;19.12;66.39;100911.48;109394;1250;59713;-50
2023/06/09 05:26:18;;;;;;;8.40;7.00;;;;;;;19.13;66.43;100913.48;109373;1250;73816;-50
2023/06/09 05:28:45;;;;;;;8.70;6.80;;;;;;;19.15;66.57;100914.13;109343;1250;69974;-55
2023/06/09 05:31:12;;;;;;;9.50;6.90;;;;;;;19.17;66.51;100914.61;109325;1250;71433;-52
2023/06/09 05:33:39;;;;;;;9.90;7.20;;;;;;;19.19;66.39;100920.48;109377;1250;60660;-56
2023/06/09 05:36:08;;;;;;;10.10;7.00;;;;;;;19.23;66.23;100921.19;109334;1252;58847;-54
2023/06/09 05:38:34;;;;;;;9.70;6.50;;;;;;;19.27;66.10;100923.98;109273;1253;72628;-49
2023/06/09 05:41:01;;;;;;;12.40;9.10;;;;;;;19.31;66.01;100925.87;109282;1253;69943;-50
2023/06/09 05:43:28;;;;;;;7.70;6.30;;;;;;;19.34;65.30;100932.73;109347;1250;58539;-49
2023/06/09 05:45:58;;;;;;;13.40;9.80;;;;;;;19.39;65.34;100934.30;109349;1251;61665;-51
2023/06/09 05:48:24;;;;;;;15.30;10.00;;;;;;;19.47;64.80;100937.38;109354;1251;58969;-48
2023/06/09 05:50:51;;;;;;;17.20;9.60;;;;;;;19.50;63.92;100937.79;109272;1253;73981;-48
2023/06/09 05:53:17;;;;;;;8.10;5.70;;;;;;;19.55;64.07;100934.95;109341;1250;59602;-51
2023/06/09 05:55:47;;;;;;;8.20;6.00;;;;;;;19.62;63.55;100938.00;109309;1255;58176;-48
2023/06/09 05:58:14;;;;;;;9.20;5.80;;;;;;;19.66;62.34;100940.67;109343;1250;60781;-52
2023/06/09 06:00:41;;;;;;;8.40;5.60;;;;;;;19.66;61.96;100942.04;109365;1251;60089;-49
2023/06/09 06:03:10;;;;;;;10.00;5.80;;;;;;;19.66;61.49;100935.91;109370;1250;73891;-55
2023/06/09 06:05:37;;;;;;;9.40;6.30;;;;;;;19.65;61.17;100942.17;109255;1250;71969;-49
2023/06/09 06:08:06;;;;;;;7.90;5.50;;;;;;;19.65;60.97;100936.80;109375;1250;71522;-50
2023/06/09 06:10:32;;;;;;;10.20;5.30;;;;;;;19.68;60.75;100938.86;109383;1250;61086;-48
2023/06/09 06:13:02;;;;;;;11.00;5.60;;;;;;;19.70;60.52;100938.92;109346;1251;60409;-52
2023/06/09 06:15:28;;;;;;;9.50;5.70;;;;;;;19.76;60.42;100943.83;109363;1250;71884;-50
2023/06/09 06:17:54;;;;;;;9.70;6.30;;;;;;;19.81;59.95;100944.00;109342;1250;58222;-49
2023/06/09 06:20:21;;;;;;;12.80;5.70;;;;;;;19.86;59.78;100946.45;109357;1251;58247;-51
2023/06/09 06:22:48;;;;;;;7.20;5.10;;;;;;;19.92;59.44;100942.89;109347;1250;60278;-48
2023/06/09 06:25:17;;;;;;;12.30;7.30;;;;;;;19.99;58.94;100947.41;109308;1254;58439;-50
2023/06/09 06:27:44;;;;;;;9.10;5.80;;;;;;;20.03;58.20;100949.09;109320;1252;74203;-48
2023/06/09 06:30:14;;;;;;;14.50;9.70;;;;;;;20.06;57.82;100950.16;109241;1250;70925;-48
2023/06/09 06:32:51;;;;;;;10.50;6.10;;;;;;;20.11;57.61;100949.23;109358;1251;73624;-48
2023/06/09 06:35:25;;;;;;;15.10;9.30;;;;;;;20.17;57.35;100944.13;109350;1252;60253;-48
2023/06/09 06:37:52;;;;;;;10.20;5.00;;;;;;;20.23;57.10;100946.11;109365;1253;60379;-48
2023/06/09 06:40:19;;;;;;;10.40;5.60;;;;;;;20.30;57.05;100940.67;109309;1251;72623;-51
2023/06/09 06:42:46;;;;;;;9.40;5.20;;;;;;;20.40;56.64;100943.05;109307;1256;70916;-52
2023/06/09 06:45:12;;;;;;;8.60;5.30;;;;;;;20.47;56.42;100950.05;109351;1252;71570;-49
2023/06/09 06:47:43;;;;;;;6.80;5.00;;;;;;;20.55;56.49;100952.25;109319;1256;59122;-49
2023/06/09 06:50:10;;;;;;;9.00;5.30;;;;;;;20.61;56.35;100953.45;109365;1253;60368;-50
2023/06/09 06:52:36;;;;;;;9.80;5.70;;;;;;;20.69;56.19;100955.19;108655;1250;72536;-51
2023/06/09 06:55:06;;;;;;;10.30;5.50;;;;;;;20.77;56.10;100955.84;108241;1255;69416;-55
2023/06/09 06:57:34;;;;;;;7.30;5.50;;;;;;;20.85;55.60;100958.15;108211;1251;72870;-52
2023/06/09 07:00:05;;;;;;;8.60;5.70;;;;;;;20.92;55.32;100952.61;108267;1253;59173;-55
2023/06/09 07:02:32;;;;;;;7.10;5.10;;;;;;;21.03;55.31;100955.75;108111;1254;60205;-51
2023/06/09 07:04:59;;;;;;;6.80;5.10;;;;;;;21.14;55.10;100956.02;108488;1251;73640;-48
2023/06/09 07:07:26;;;;;;;8.00;5.40;;;;;;;21.27;55.70;100955.19;109332;1250;70033;-49
2023/06/09 07:09:53;;;;;;;7.90;5.50;;;;;;;21.43;55.19;100955.73;109343;1251;72736;-48
2023/06/09 07:12:19;;;;;;;9.50;5.40;;;;;;;21.52;54.48;100957.88;109360;1250;59716;-49
2023/06/09 07:14:46;;;;;;;7.90;5.20;;;;;;;21.61;54.04;100959.80;109394;1250;59097;-52
2023/06/09 07:17:12;;;;;;;10.30;5.50;;;;;;;21.69;53.86;100957.86;109370;1254;58298;-49
2023/06/09 07:19:39;;;;;;;9.20;5.60;;;;;;;21.79;53.87;100958.52;109361;1251;68970;-51
2023/06/09 07:22:05;;;;;;;8.40;5.00;;;;;;;21.92;53.88;100963.94;109389;1255;58323;-49
2023/06/09 07:24:32;;;;;;;9.10;5.40;;;;;;;22.05;53.45;100966.84;109380;1251;59514;-48
2023/06/09 07:26:59;;;;;;;8.80;5.40;;;;;;;22.17;53.29;100966.02;109359;1254;60459;-50
2023/06/09 07:29:25;;;;;;;8.70;5.10;;;;;;;22.30;53.12;100966.85;109379;1253;58514;-55
2023/06/09 07:31:52;;;;;;;9.80;5.60;;;;;;;22.47;52.94;100969.00;109341;1251;71399;-51
2023/06/09 07:34:19;;;;;;;10.60;5.50;;;;;;;22.65;52.80;100965.33;109317;1251;72633;-49
2023/06/09 07:36:50;;;;;;;12.10;7.90;;;;;;;22.83;52.58;100966.80;109319;1251;61016;-51
2023/06/09 07:39:17;;;;;;;8.00;5.30;;;;;;;22.96;51.69;100968.40;109372;1251;60969;-51
2023/06/09 07:41:43;;;;;;;7.80;5.20;;;;;;;23.09;51.48;100968.09;109328;1254;72663;-50
2023/06/09 07:44:10;;;;;;;6.90;5.20;;;;;;;23.24;51.50;100967.63;109377;1256;57886;-50
2023/06/09 07:46:36;;;;;;;10.00;5.70;;;;;;;23.38;50.99;100965.45;109325;1252;58297;-48
2023/06/09 07:49:03;;;;;;;9.20;6.10;;;;;;;23.52;50.41;100969.94;109257;1251;58266;-48
2023/06/09 07:51:30;;;;;;;12.80;5.70;;;;;;;23.62;49.98;100971.23;109307;1252;60065;-50
2023/06/09 07:53:56;;;;;;;8.90;5.00;;;;;;;23.76;50.13;100966.89;109336;1254;72703;-49
2023/06/09 07:56:23;;;;;;;12.00;8.80;;;;;;;23.89;49.93;100963.94;109365;1256;58450;-51
2023/06/09 07:58:49;;;;;;;7.50;5.40;;;;;;;24.02;49.68;100968.77;109376;1251;58251;-51
2023/06/09 08:01:16;;;;;;;11.20;5.10;;;;;;;24.16;49.38;100970.23;109335;1250;58350;-50
2023/06/09 08:03:42;;;;;;;10.00;5.10;;;;;;;24.30;49.28;100969.91;109339;1254;58251;-47
2023/06/09 08:06:09;;;;;;;16.20;11.50;;;;;;;24.50;49.12;100975.91;109335;1251;58296;-46
2023/06/09 08:08:37;;;;;;;9.60;5.10;;;;;;;24.74;48.61;100976.02;109277;1251;71460;-51
2023/06/09 08:11:03;;;;;;;15.60;10.80;;;;;;;24.95;47.74;100977.48;109336;1254;71778;-49
2023/06/09 08:13:30;;;;;;;8.50;5.20;;;;;;;25.07;47.46;100975.58;109325;1251;58184;-52
2023/06/09 08:15:57;;;;;;;11.30;5.30;;;;;;;25.20;47.44;100971.90;109325;1251;60426;-48
2023/06/09 08:18:23;;;;;;;10.30;6.20;;;;;;;25.35;47.20;100973.77;109329;1254;73943;-46
2023/06/09 08:20:50;;;;;;;8.50;4.80;;;;;;;25.46;47.09;100971.06;109326;1250;58805;-46
2023/06/09 08:23:20;;;;;;;10.80;5.10;;;;;;;25.62;47.25;100970.58;109312;1251;58494;-46
2023/06/09 08:25:47;;;;;;;8.20;5.00;;;;;;;25.82;46.90;100969.45;109342;1251;60317;-48
2023/06/09 08:28:14;;;;;;;9.50;5.50;;;;;;;26.02;46.70;100968.58;109357;1251;60053;-50
2023/06/09 08:30:40;;;;;;;17.90;12.10;;;;;;;26.14;45.93;100969.55;109351;1251;72694;-50
2023/06/09 08:33:07;;;;;;;18.00;15.30;;;;;;;26.21;45.00;100967.80;109322;1254;71068;-45
2023/06/09 08:35:34;;;;;;;76.90;60.30;;;;;;;26.28;45.11;100973.29;109352;1251;72685;-49
2023/06/09 08:38:00;;;;;;;11.10;6.90;;;;;;;26.37;44.56;100967.56;109354;1251;58305;-48
2023/06/09 08:40:27;;;;;;;9.70;4.80;;;;;;;26.43;44.13;100969.46;109336;1251;58722;-47
2023/06/09 08:42:55;;;;;;;10.70;6.20;;;;;;;26.50;44.56;100969.52;109358;1250;58648;-48
2023/06/09 08:45:22;;;;;;;12.00;7.90;;;;;;;26.60;44.63;100976.80;109352;1251;69371;-47
2023/06/09 08:47:53;;;;;;;9.00;4.80;;;;;;;26.71;43.97;100971.07;109267;1251;71499;-50
2023/06/09 08:50:21;;;;;;;8.60;6.10;;;;;;;26.82;43.40;100971.85;109311;1251;60453;-50
2023/06/09 08:52:48;;;;;;;13.00;9.90;;;;;;;26.94;43.43;100969.85;109334;1251;60401;-48
2023/06/09 08:55:15;;;;;;;6.60;4.60;;;;;;;27.10;43.24;100975.71;109342;1251;74118;-52
2023/06/09 08:57:42;;;;;;;10.70;5.60;;;;;;;27.26;42.88;100973.38;109338;1251;69953;-47
2023/06/09 09:00:11;;;;;;;17.00;14.20;;;;;;;27.33;42.02;100973.23;109344;1250;72692;-48
2023/06/09 09:02:38;;;;;;;13.20;9.50;;;;;;;27.35;41.56;100975.80;109297;1251;60569;-48
2023/06/09 09:05:05;;;;;;;8.30;5.00;;;;;;;27.36;41.20;100976.17;109305;1253;59579;-50
2023/06/09 09:07:31;;;;;;;8.50;5.10;;;;;;;27.36;41.53;100980.48;109298;1251;73818;-49
2023/06/09 09:10:00;;;;;;;7.50;5.00;;;;;;;27.34;41.54;100980.20;109343;1254;58633;-50
2023/06/09 09:12:27;;;;;;;10.10;6.30;;;;;;;27.34;41.79;100980.27;109338;1251;73914;-50
2023/06/09 09:14:53;;;;;;;9.70;6.40;;;;;;;27.37;41.16;100982.20;109298;1251;58453;-47
2023/06/09 09:17:20;;;;;;;9.50;5.10;;;;;;;27.37;40.81;100982.10;109330;1251;59344;-55
2023/06/09 09:19:51;;;;;;;8.80;5.10;;;;;;;27.39;41.10;100981.71;109363;1251;58221;-51
2023/06/09 09:22:18;;;;;;;9.60;4.90;;;;;;;27.44;41.19;100981.79;109274;1251;70078;-51
2023/06/09 09:24:46;;;;;;;7.90;4.80;;;;;;;27.48;41.46;100976.48;109302;1250;71485;-49
2023/06/09 09:27:21;;;;;;;9.70;6.40;;;;;;;27.58;41.73;100974.13;109320;1251;60016;-51
2023/06/09 09:29:48;;;;;;;11.30;7.50;;;;;;;27.67;41.32;100972.98;109392;1251;58789;-48
2023/06/09 09:32:16;;;;;;;12.50;6.40;;;;;;;27.72;41.46;100969.84;109361;1251;72307;-47
2023/06/09 09:34:47;;;;;;;18.00;11.80;;;;;;;27.77;41.13;100973.17;109370;1251;70047;-50
2023/06/09 09:37:15;;;;;;;11.00;5.50;;;;;;;27.80;40.82;100970.94;109309;1251;72636;-47
2023/06/09 09:39:50;;;;;;;11.60;7.70;;;;;;;27.86;40.81;100970.30;109314;1251;58899;-48
2023/06/09 09:42:18;;;;;;;9.70;5.90;;;;;;;27.82;41.01;100966.55;109362;1251;60352;-48
2023/06/09 09:44:47;;;;;;;11.10;7.30;;;;;;;27.74;40.61;100970.65;109384;1251;74386;-50
2023/06/09 09:47:15;;;;;;;8.00;4.80;;;;;;;27.60;40.60;100973.57;109321;1251;70467;-47
2023/06/09 09:49:58;;;;;;;8.40;5.70;;;;;;;27.48;40.52;100978.17;109380;1251;71134;-49
2023/06/09 09:52:34;;;;;;;8.20;5.00;;;;;;;27.35;41.17;100975.91;109342;1250;60430;-48
2023/06/09 09:55:04;;;;;;;8.20;4.70;;;;;;;27.28;41.08;100976.81;109347;1251;61082;-48
2023/06/09 09:57:32;;;;;;;8.50;5.00;;;;;;;27.23;41.69;100976.51;109369;1251;72776;-48
2023/06/09 10:00:00;;;;;;;14.60;9.10;;;;;;;27.28;41.63;100975.95;109343;1251;70608;-50
2023/06/09 10:02:29;;;;;;;9.00;4.40;;;;;;;27.42;41.37;100975.59;109322;1251;72710;-54
2023/06/09 10:05:03;;;;;;;9.30;6.50;;;;;;;27.57;41.05;100972.17;109341;1251;60146;-48
2023/06/09 10:07:34;;;;;;;10.70;6.90;;;;;;;27.72;40.99;100971.86;109387;1251;60433;-51
2023/06/09 10:10:02;;;;;;;6.70;4.50;;;;;;;27.85;40.47;100972.33;109375;1251;73923;-49
2023/06/09 10:12:29;;;;;;;5.80;4.40;;;;;;;27.91;39.88;100973.44;109359;1251;70617;-48
2023/06/09 10:14:56;;;;;;;8.70;4.80;;;;;;;27.96;40.04;100969.46;109315;1251;72667;-48
2023/06/09 10:17:25;;;;;;;10.10;6.50;;;;;;;28.03;39.70;100967.67;109312;1251;59103;-47
2023/06/09 10:19:52;;;;;;;7.40;4.60;;;;;;;28.18;39.44;100966.90;109340;1251;58856;-48
2023/06/09 10:22:19;;;;;;;6.40;4.60;;;;;;;28.27;38.87;100964.50;109321;1251;72730;-52
2023/06/09 10:24:46;;;;;;;11.40;6.60;;;;;;;28.40;39.33;100967.00;109345;1251;70212;-50
2023/06/09 10:27:14;;;;;;;7.70;4.80;;;;;;;28.54;38.76;100965.69;109334;1251;72391;-49
2023/06/09 10:29:41;;;;;;;29.30;19.30;;;;;;;28.64;38.60;100965.64;109334;1251;58381;-48
2023/06/09 10:32:10;;;;;;;8.20;4.80;;;;;;;28.73;38.23;100963.63;109326;1251;58789;-51
2023/06/09 10:34:40;;;;;;;7.80;4.60;;;;;;;28.81;38.22;100961.84;109307;1251;73023;-50
2023/06/09 10:37:07;;;;;;;6.60;4.60;;;;;;;28.89;37.93;100965.46;109380;1251;70264;-47
2023/06/09 10:39:51;;;;;;;12.40;10.00;;;;;;;28.97;37.78;100963.08;109323;1251;58885;-50
2023/06/09 10:42:25;;;;;;;6.40;3.90;;;;;;;29.05;37.87;100964.44;109368;1251;59634;-48
2023/06/09 10:45:03;;;;;;;10.30;7.10;;;;;;;29.13;37.71;100963.44;109358;1251;61272;-49
2023/06/09 10:47:50;;;;;;;10.10;7.60;;;;;;;29.18;36.80;100963.21;109351;1251;72977;-49
2023/06/09 10:50:23;;;;;;;13.10;8.50;;;;;;;29.21;36.68;100966.95;109369;1250;71704;-50
2023/06/09 10:52:54;;;;;;;12.80;8.20;;;;;;;29.24;36.41;100964.27;109311;1250;73043;-52
2023/06/09 10:55:24;;;;;;;6.20;4.60;;;;;;;29.22;35.93;100961.80;109341;1251;60524;-52
2023/06/09 10:57:52;;;;;;;6.00;4.20;;;;;;;29.21;35.69;100967.38;109343;1251;59317;-50
2023/06/09 11:00:19;;;;;;;6.40;3.90;;;;;;;29.18;35.72;100966.16;109335;1251;73999;-54
2023/06/09 11:02:50;;;;;;;8.10;4.10;;;;;;;29.14;36.26;100963.38;109301;1251;71202;-50
2023/06/09 11:05:19;;;;;;;6.90;4.30;;;;;;;29.11;35.95;100959.25;109335;1251;71447;-49
2023/06/09 11:08:03;;;;;;;5.00;4.10;;;;;;;29.04;35.67;100953.42;109334;1250;60430;-50
2023/06/09 11:10:30;;;;;;;12.10;6.60;;;;;;;29.04;36.15;100953.85;109375;1250;60312;-46
2023/06/09 11:12:57;;;;;;;6.00;3.90;;;;;;;29.08;35.80;100953.36;107204;1251;73664;-51
2023/06/09 11:16:02;;;;;;;15.40;11.50;;;;;;;29.05;35.59;100951.11;107244;1251;71038;-49
2023/06/09 11:18:30;;;;;;;7.00;4.40;;;;;;;29.04;35.22;100952.05;106723;1254;72760;-51
2023/06/09 11:21:13;;;;;;;5.70;3.80;;;;;;;29.03;35.00;100953.10;107191;1251;60280;-49
2023/06/09 11:24:00;;;;;;;6.10;3.60;;;;;;;29.00;34.74;100949.17;106988;1250;60514;-48